Hampton, Kentucky
Current Conditions -  °F | °C
As of 2:15 PM on Sunday 25 Jan 2015 (Local Time) from K5M9 Reporting Station
Light Rain Light Rain  
Wind Chill: 36°   Ceiling: 800
Heat Index: 41°   Visibility: 7mi
Dew Point: 40°   Wind: 7mph
Humidity: 97%   Direction: 200°SSW
Pressure: 29.59"   Gusts: NA
Location:  37.28°N, 88.37°W
Report Text: K5M9 252015Z AUTO 20006KT 7SM -RA BKN008 BKN011 OVC022 05/04 A2959 RMK AO2 T00480044
Loading
Personal Weather Stations






























Interactive Weather Map New forecast layout! Learn more

10-Day Weather Forecast

Advertisements
Track Severe Weather on mobile